Time;durP1;ratioP1;P1;durP2;ratioP2;P2;SDS_P1;SDS_P2;PMS_P1;PMS_P2;Temp;Humidity;BMP_temperature;BMP_pressure;BME280_temperature;BME280_humidity;BME280_pressure;Samples;Min_cycle;Max_cycle;Signal;HPM_P1;HPM_P2
2022/09/17 00:01:29;;;;;;;0.60;0.10;;;11.60;1.00;;;;;;6158788;23;20479;-78
2022/09/17 00:04:02;;;;;;;0.60;0.10;;;11.60;1.00;;;;;;6158305;23;20413;-77
2022/09/17 00:06:32;;;;;;;0.60;0.13;;;11.60;1.00;;;;;;6160170;23;20500;-78
2022/09/17 00:08:59;;;;;;;0.60;0.10;;;11.70;1.00;;;;;;6159638;23;20471;-78
2022/09/17 00:11:30;;;;;;;0.60;0.10;;;11.70;1.00;;;;;;6158682;23;20432;-78
2022/09/17 00:14:00;;;;;;;6.07;4.53;;;11.70;1.00;;;;;;6156853;23;20464;-77
2022/09/17 00:16:31;;;;;;;0.60;0.10;;;11.70;1.00;;;;;;6160235;23;20411;-79
2022/09/17 00:19:00;;;;;;;0.70;0.50;;;11.70;1.00;;;;;;6163973;23;20405;-78
2022/09/17 00:21:29;;;;;;;1.00;0.73;;;11.70;1.00;;;;;;6159417;23;20476;-79
2022/09/17 00:23:58;;;;;;;0.60;0.10;;;11.70;1.00;;;;;;6159739;23;20417;-78
2022/09/17 00:26:28;;;;;;;0.60;0.10;;;11.70;1.00;;;;;;6161261;23;20913;-78
2022/09/17 00:28:57;;;;;;;1.10;0.53;;;11.70;1.00;;;;;;6163206;23;20409;-78
2022/09/17 00:31:26;;;;;;;0.60;0.10;;;11.70;1.00;;;;;;6165020;23;20424;-78
2022/09/17 00:33:54;;;;;;;0.60;0.10;;;11.60;1.00;;;;;;6159730;23;20528;-77
2022/09/17 00:36:22;;;;;;;0.70;0.20;;;11.60;1.00;;;;;;6157262;23;20408;-78
2022/09/17 00:38:51;;;;;;;1.00;0.73;;;11.60;1.00;;;;;;6160423;23;20885;-78
2022/09/17 00:41:19;;;;;;;0.60;0.10;;;11.60;1.00;;;;;;6160069;23;20493;-78
2022/09/17 00:43:50;;;;;;;0.60;0.20;;;11.60;1.00;;;;;;6160371;23;20409;-79
2022/09/17 00:46:28;;;;;;;0.60;0.10;;;11.50;1.00;;;;;;6168404;23;20409;-78
2022/09/17 00:48:58;;;;;;;0.60;0.10;;;11.50;1.00;;;;;;6165490;23;20400;-77
2022/09/17 00:51:33;;;;;;;0.60;0.10;;;11.50;1.00;;;;;;6159612;23;20437;-76
2022/09/17 00:54:03;;;;;;;0.60;0.10;;;11.40;1.00;;;;;;6156648;23;20547;-78
2022/09/17 00:56:34;;;;;;;0.60;0.10;;;11.50;1.00;;;;;;6157168;23;20405;-77
2022/09/17 00:59:04;;;;;;;0.60;0.10;;;12.40;1.00;;;;;;6155863;23;20859;-77
2022/09/17 01:01:33;;;;;;;0.60;0.10;;;12.70;1.00;;;;;;6156897;23;20697;-78
2022/09/17 01:04:01;;;;;;;0.60;0.20;;;11.40;1.00;;;;;;6154604;23;20420;-77
2022/09/17 01:06:34;;;;;;;0.60;0.10;;;11.50;1.00;;;;;;6155788;23;20409;-77
2022/09/17 01:09:22;;;;;;;1.83;1.40;;;11.50;1.00;;;;;;6159412;23;20387;-79
2022/09/17 01:12:11;;;;;;;0.60;0.10;;;11.50;1.00;;;;;;6167420;23;20405;-76
2022/09/17 01:14:53;;;;;;;0.60;0.10;;;11.60;1.00;;;;;;6173982;23;20448;-77
2022/09/17 01:17:28;;;;;;;0.60;0.10;;;11.50;1.00;;;;;;6175058;23;20416;-77
2022/09/17 01:20:19;;;;;;;0.60;0.10;;;11.60;1.00;;;;;;6167159;23;20480;-77
2022/09/17 01:22:59;;;;;;;0.80;0.40;;;11.60;1.00;;;;;;6162451;23;20409;-78
2022/09/17 01:25:38;;;;;;;0.60;0.10;;;11.60;1.00;;;;;;6159402;23;20393;-77
2022/09/17 01:28:31;;;;;;;0.60;0.10;;;11.60;1.00;;;;;;6158602;23;20400;-78
2022/09/17 01:31:18;;;;;;;0.90;0.43;;;11.50;1.00;;;;;;6156668;23;20429;-80
2022/09/17 01:34:00;;;;;;;0.60;0.20;;;11.40;1.00;;;;;;6160364;23;20389;-78
2022/09/17 01:36:43;;;;;;;0.60;0.10;;;11.40;1.00;;;;;;6164931;23;20419;-78
2022/09/17 01:39:20;;;;;;;1.53;0.60;;;11.40;1.00;;;;;;6162440;23;20382;-78
2022/09/17 01:41:52;;;;;;;0.60;0.10;;;11.30;1.00;;;;;;6162166;23;20455;-77
2022/09/17 01:44:26;;;;;;;0.60;0.10;;;11.30;1.00;;;;;;6162295;23;20406;-77
2022/09/17 01:47:01;;;;;;;0.60;0.10;;;11.30;1.00;;;;;;6158169;23;20385;-77
2022/09/17 01:49:31;;;;;;;1.00;0.30;;;11.40;1.00;;;;;;6156240;23;20400;-77
2022/09/17 01:52:01;;;;;;;0.60;0.17;;;11.50;1.00;;;;;;6157872;23;20466;-78
2022/09/17 01:54:33;;;;;;;0.60;0.10;;;11.50;1.00;;;;;;6160346;23;20460;-78
2022/09/17 01:57:08;;;;;;;0.60;0.20;;;11.50;1.00;;;;;;6161145;23;20815;-77
2022/09/17 01:59:41;;;;;;;0.60;0.20;;;11.50;1.00;;;;;;6160836;23;20460;-77
2022/09/17 02:02:13;;;;;;;0.60;0.10;;;11.50;1.00;;;;;;6159011;23;20413;-77
2022/09/17 02:04:48;;;;;;;0.60;0.10;;;11.40;1.00;;;;;;6159491;23;20405;-78
2022/09/17 02:07:20;;;;;;;0.70;0.30;;;11.40;1.00;;;;;;6159864;23;20392;-78
2022/09/17 02:09:54;;;;;;;0.60;0.20;;;11.40;1.00;;;;;;6159297;23;20435;-79
2022/09/17 02:12:28;;;;;;;0.60;0.10;;;11.30;1.00;;;;;;6160117;23;20404;-77
2022/09/17 02:15:00;;;;;;;0.70;0.50;;;11.20;1.00;;;;;;6158245;23;20451;-77
2022/09/17 02:17:34;;;;;;;0.60;0.10;;;11.20;1.00;;;;;;6162275;23;20393;-78
2022/09/17 02:20:04;;;;;;;0.60;0.10;;;11.30;1.00;;;;;;6164816;23;20433;-78
2022/09/17 02:22:38;;;;;;;0.60;0.20;;;11.30;1.00;;;;;;6159962;23;20425;-78
2022/09/17 02:25:14;;;;;;;0.60;0.10;;;11.40;1.00;;;;;;6157975;23;20405;-77
2022/09/17 02:27:49;;;;;;;0.60;0.10;;;11.30;1.00;;;;;;6155863;23;20762;-77
2022/09/17 02:30:17;;;;;;;0.60;0.10;;;11.20;1.00;;;;;;6158743;23;20782;-77
2022/09/17 02:32:46;;;;;;;0.60;0.10;;;11.20;1.00;;;;;;6154237;23;20397;-77
2022/09/17 02:35:15;;;;;;;0.60;0.10;;;11.30;1.00;;;;;;6154775;23;20811;-78
2022/09/17 02:37:44;;;;;;;1.67;0.20;;;11.40;1.00;;;;;;6155095;23;20476;-78
2022/09/17 02:40:14;;;;;;;1.17;0.67;;;11.20;1.00;;;;;;6154724;23;21008;-77
2022/09/17 02:42:56;;;;;;;0.60;0.20;;;11.20;1.00;;;;;;6154758;23;20413;-77
2022/09/17 02:45:35;;;;;;;0.60;0.20;;;11.20;1.00;;;;;;6155120;23;20401;-78
2022/09/17 02:48:27;;;;;;;1.53;0.50;;;11.20;1.00;;;;;;6156540;23;20412;-77
2022/09/17 02:51:19;;;;;;;0.60;0.10;;;11.10;1.00;;;;;;6162138;23;20455;-75
2022/09/17 02:53:57;;;;;;;0.60;0.17;;;11.20;1.00;;;;;;6183215;23;20401;-76
2022/09/17 02:56:37;;;;;;;0.80;0.27;;;11.20;1.00;;;;;;6182997;23;20440;-76
2022/09/17 02:59:13;;;;;;;1.70;0.70;;;11.20;1.00;;;;;;6183285;23;20387;-75
2022/09/17 03:01:46;;;;;;;0.60;0.10;;;11.10;1.00;;;;;;6158465;23;20428;-75
2022/09/17 03:04:19;;;;;;;0.60;0.10;;;11.10;1.00;;;;;;6156619;23;20385;-75
2022/09/17 03:06:47;;;;;;;0.80;0.53;;;12.70;1.00;;;;;;6155652;23;20405;-75
2022/09/17 03:09:15;;;;;;;0.60;0.20;;;11.10;1.00;;;;;;6154421;23;20405;-75
2022/09/17 03:11:43;;;;;;;0.60;0.10;;;11.10;1.00;;;;;;6153726;23;20452;-76
2022/09/17 03:14:11;;;;;;;0.60;0.10;;;11.20;1.00;;;;;;6151565;23;20415;-76
2022/09/17 03:16:39;;;;;;;0.60;0.10;;;11.20;1.00;;;;;;6150785;23;20936;-75
2022/09/17 03:19:07;;;;;;;0.60;0.10;;;11.20;1.00;;;;;;6151213;23;20513;-75
2022/09/17 03:21:36;;;;;;;0.97;0.97;;;11.10;1.00;;;;;;6151893;23;20785;-76
2022/09/17 03:24:04;;;;;;;0.60;0.10;;;11.10;1.00;;;;;;6150915;23;20397;-75
2022/09/17 03:26:32;;;;;;;0.70;0.20;;;11.10;1.00;;;;;;6151919;23;20905;-76
2022/09/17 03:29:00;;;;;;;1.20;0.30;;;11.10;1.00;;;;;;6152489;23;20484;-76
2022/09/17 03:31:28;;;;;;;0.60;0.30;;;11.10;1.00;;;;;;6152799;23;20429;-75
2022/09/17 03:33:57;;;;;;;0.60;0.23;;;11.00;1.00;;;;;;6153071;23;20542;-75
2022/09/17 03:36:25;;;;;;;0.60;0.20;;;11.00;1.00;;;;;;6153966;23;20451;-75
2022/09/17 03:38:55;;;;;;;1.03;0.83;;;11.00;1.00;;;;;;6154048;23;20405;-75
2022/09/17 03:41:24;;;;;;;0.60;0.20;;;11.00;1.00;;;;;;6153305;23;21048;-75
2022/09/17 03:43:52;;;;;;;3.73;0.97;;;11.10;1.00;;;;;;6153847;23;20406;-76
2022/09/17 03:46:20;;;;;;;0.60;0.10;;;10.90;1.00;;;;;;6154315;23;20405;-75
2022/09/17 03:48:48;;;;;;;0.60;0.10;;;10.90;1.00;;;;;;6154175;23;20455;-75
2022/09/17 03:51:15;;;;;;;0.60;0.10;;;10.90;1.00;;;;;;6153335;23;20448;-75
2022/09/17 03:53:43;;;;;;;0.60;0.30;;;10.90;1.00;;;;;;6153750;23;20413;-75
2022/09/17 03:56:12;;;;;;;0.60;0.10;;;10.80;1.00;;;;;;6153771;23;20433;-75
2022/09/17 03:58:40;;;;;;;0.60;0.20;;;10.80;1.00;;;;;;6164474;23;20440;-75
2022/09/17 04:01:08;;;;;;;0.60;0.10;;;10.80;1.00;;;;;;6169890;23;20421;-75
2022/09/17 04:03:36;;;;;;;3.33;0.57;;;10.80;1.00;;;;;;6159236;23;20459;-77
2022/09/17 04:06:04;;;;;;;0.60;0.10;;;10.80;1.00;;;;;;6154497;23;21004;-76
2022/09/17 04:08:32;;;;;;;0.70;0.30;;;10.80;1.00;;;;;;6153667;23;20412;-76
2022/09/17 04:11:00;;;;;;;0.60;0.20;;;10.70;1.00;;;;;;6154157;23;20472;-76
2022/09/17 04:13:29;;;;;;;0.70;0.47;;;10.80;1.00;;;;;;6153549;23;20401;-74
2022/09/17 04:15:57;;;;;;;0.70;0.30;;;10.80;1.00;;;;;;6153736;23;20932;-75
2022/09/17 04:18:25;;;;;;;0.80;0.30;;;10.70;1.00;;;;;;6154576;23;20447;-75
2022/09/17 04:20:53;;;;;;;1.07;0.77;;;10.70;1.00;;;;;;6155343;23;21000;-75
2022/09/17 04:23:21;;;;;;;0.67;0.50;;;10.70;1.00;;;;;;6155428;23;20413;-75
2022/09/17 04:25:48;;;;;;;0.60;0.20;;;10.70;1.00;;;;;;6155367;23;20452;-75
2022/09/17 04:28:16;;;;;;;0.60;0.10;;;10.70;1.00;;;;;;6155759;23;20471;-75
2022/09/17 04:30:47;;;;;;;1.03;0.40;;;10.80;1.00;;;;;;6155841;23;20937;-75
2022/09/17 04:33:15;;;;;;;0.60;0.10;;;10.80;1.00;;;;;;6155825;23;20421;-75
2022/09/17 04:35:43;;;;;;;0.60;0.10;;;10.80;1.00;;;;;;6155335;23;20511;-75
2022/09/17 04:38:12;;;;;;;0.60;0.10;;;10.80;1.00;;;;;;6155151;23;20937;-75
2022/09/17 04:40:41;;;;;;;0.60;0.10;;;10.80;1.00;;;;;;6154991;23;20937;-75
2022/09/17 04:43:09;;;;;;;0.60;0.10;;;10.80;1.00;;;;;;6155711;23;20398;-75
2022/09/17 04:45:37;;;;;;;0.60;0.17;;;10.90;1.00;;;;;;6155619;23;20745;-75
2022/09/17 04:48:06;;;;;;;0.77;0.37;;;;;;;;;;6155546;23;20409;-76
2022/09/17 04:50:34;;;;;;;0.67;0.37;;;10.80;1.00;;;;;;6155774;23;20521;-75
2022/09/17 04:53:02;;;;;;;0.60;0.30;;;10.80;1.00;;;;;;6155652;23;20406;-74
2022/09/17 04:55:30;;;;;;;0.60;0.10;;;10.80;1.00;;;;;;6155279;23;20468;-75
2022/09/17 04:57:58;;;;;;;1.10;0.83;;;10.80;1.00;;;;;;6156206;23;20503;-75
2022/09/17 05:00:26;;;;;;;0.60;0.10;;;10.90;1.00;;;;;;6155271;23;20432;-75
2022/09/17 05:02:55;;;;;;;1.93;0.70;;;10.90;1.00;;;;;;6155471;23;20709;-76
2022/09/17 05:05:25;;;;;;;0.60;0.10;;;10.90;1.00;;;;;;6155535;23;20412;-76
2022/09/17 05:07:53;;;;;;;0.60;0.20;;;11.00;1.00;;;;;;6155591;23;20707;-76
2022/09/17 05:10:23;;;;;;;0.60;0.40;;;11.00;1.00;;;;;;6154940;23;20433;-76
2022/09/17 05:12:51;;;;;;;0.60;0.10;;;11.00;1.00;;;;;;6155385;23;20408;-75
2022/09/17 05:15:19;;;;;;;0.60;0.10;;;11.00;1.00;;;;;;6155577;23;20406;-76
2022/09/17 05:17:47;;;;;;;0.60;0.20;;;11.00;1.00;;;;;;6155137;23;20440;-76
2022/09/17 05:20:16;;;;;;;0.60;0.10;;;11.00;1.00;;;;;;6155568;23;20532;-76
2022/09/17 05:22:47;;;;;;;0.60;0.10;;;11.00;1.00;;;;;;6163307;23;20448;-75
2022/09/17 05:25:17;;;;;;;2.03;0.40;;;10.90;1.00;;;;;;6172254;23;20811;-75
2022/09/17 05:27:45;;;;;;;0.60;0.10;;;11.00;1.00;;;;;;6161874;23;20401;-76
2022/09/17 05:30:13;;;;;;;0.60;0.20;;;11.00;1.00;;;;;;6159291;23;20437;-76
2022/09/17 05:32:41;;;;;;;0.60;0.20;;;11.00;1.00;;;;;;6161319;23;20785;-76
2022/09/17 05:35:09;;;;;;;0.60;0.20;;;11.10;1.00;;;;;;6162249;23;20416;-76
2022/09/17 05:37:37;;;;;;;0.60;0.17;;;11.10;1.00;;;;;;6162581;23;20495;-76
2022/09/17 05:40:09;;;;;;;0.60;0.10;;;11.10;1.00;;;;;;6162645;23;20480;-76
2022/09/17 05:42:37;;;;;;;0.60;0.10;;;11.10;1.00;;;;;;6160167;23;20709;-75
2022/09/17 05:45:06;;;;;;;0.60;0.10;;;11.10;1.00;;;;;;6160726;23;20412;-76
2022/09/17 05:47:34;;;;;;;0.60;0.10;;;11.10;1.00;;;;;;6159471;23;20479;-76
2022/09/17 05:50:02;;;;;;;0.90;0.30;;;11.10;1.00;;;;;;6160325;23;20421;-75
2022/09/17 05:52:30;;;;;;;0.60;0.10;;;11.10;1.00;;;;;;6162767;23;20417;-75
2022/09/17 05:54:57;;;;;;;0.53;0.10;;;11.10;1.00;;;;;;6161168;23;20496;-76
2022/09/17 05:57:28;;;;;;;0.60;0.10;;;11.10;1.00;;;;;;6160406;23;20444;-75
2022/09/17 05:59:56;;;;;;;0.60;0.10;;;11.20;1.00;;;;;;6159566;23;20426;-75
2022/09/17 06:02:24;;;;;;;0.60;0.20;;;11.10;1.00;;;;;;6156936;23;20425;-75
2022/09/17 06:04:52;;;;;;;0.60;0.10;;;11.10;1.00;;;;;;6157674;23;20483;-75
2022/09/17 06:07:20;;;;;;;1.30;1.20;;;11.10;1.00;;;;;;6158870;23;20437;-74
2022/09/17 06:09:47;;;;;;;1.27;0.93;;;11.10;1.00;;;;;;6157737;23;20471;-75
2022/09/17 06:12:15;;;;;;;0.80;0.37;;;11.10;1.00;;;;;;6159204;23;20556;-75
2022/09/17 06:14:45;;;;;;;0.60;0.10;;;11.10;1.00;;;;;;6160438;23;20423;-75
2022/09/17 06:17:12;;;;;;;0.90;0.70;;;11.10;1.00;;;;;;6160324;23;20598;-75
2022/09/17 06:19:40;;;;;;;0.60;0.10;;;11.20;1.00;;;;;;6159136;23;20894;-75
2022/09/17 06:22:08;;;;;;;0.60;0.10;;;11.20;1.00;;;;;;6160002;23;20890;-75
2022/09/17 06:24:36;;;;;;;0.93;0.83;;;11.20;1.00;;;;;;6161362;23;20445;-75
2022/09/17 06:27:04;;;;;;;0.60;0.30;;;11.30;1.00;;;;;;6161120;23;20902;-75
2022/09/17 06:29:31;;;;;;;0.60;0.10;;;11.30;1.00;;;;;;6162408;23;20397;-75
2022/09/17 06:32:01;;;;;;;1.43;0.93;;;11.30;1.00;;;;;;6161760;23;20456;-76
2022/09/17 06:34:29;;;;;;;0.93;0.83;;;11.40;1.00;;;;;;6159895;23;20405;-75
2022/09/17 06:36:57;;;;;;;0.60;0.10;;;11.50;1.00;;;;;;6159149;23;20448;-74
2022/09/17 06:39:25;;;;;;;0.60;0.27;;;;;;;;;;6159361;23;20905;-76
2022/09/17 06:41:53;;;;;;;0.63;0.30;;;11.50;1.00;;;;;;6164099;23;20425;-74
2022/09/17 06:44:20;;;;;;;0.80;0.30;;;11.50;1.00;;;;;;6165685;23;20409;-74
2022/09/17 06:46:49;;;;;;;0.60;0.10;;;11.50;1.00;;;;;;6162763;23;20441;-74
2022/09/17 06:49:19;;;;;;;1.53;0.57;;;11.70;1.00;;;;;;6159863;23;20405;-74
2022/09/17 06:51:47;;;;;;;0.70;0.43;;;11.80;1.00;;;;;;6159409;23;20437;-74
2022/09/17 06:54:15;;;;;;;1.13;1.03;;;11.90;1.00;;;;;;6157810;23;20405;-77
2022/09/17 06:56:43;;;;;;;0.80;0.43;;;11.80;1.00;;;;;;6157920;23;20473;-75
2022/09/17 06:59:10;;;;;;;0.60;0.10;;;11.80;1.00;;;;;;6155569;23;20449;-76
2022/09/17 07:01:38;;;;;;;0.60;0.10;;;11.80;1.00;;;;;;6155257;23;20781;-75
2022/09/17 07:04:06;;;;;;;0.60;0.10;;;11.90;1.00;;;;;;6157321;23;20492;-75
2022/09/17 07:06:36;;;;;;;0.60;0.10;;;12.00;1.00;;;;;;6165441;23;20405;-76
2022/09/17 07:09:06;;;;;;;0.60;0.10;;;12.10;1.00;;;;;;6166223;23;20794;-75
2022/09/17 07:11:38;;;;;;;0.60;0.10;;;12.30;1.00;;;;;;6157884;23;20501;-75
2022/09/17 07:14:06;;;;;;;0.60;0.30;;;12.40;1.00;;;;;;6155471;23;20405;-75
2022/09/17 07:16:35;;;;;;;0.60;0.10;;;12.50;1.00;;;;;;6157116;23;20417;-75
2022/09/17 07:19:04;;;;;;;0.90;0.90;;;12.70;1.00;;;;;;6155403;23;20445;-75
2022/09/17 07:21:31;;;;;;;0.60;0.10;;;12.70;1.00;;;;;;6156258;23;20527;-75
2022/09/17 07:24:01;;;;;;;1.43;1.03;;;12.70;1.00;;;;;;6154846;23;20462;-74
2022/09/17 07:26:29;;;;;;;0.60;0.10;;;12.70;1.00;;;;;;6156463;23;20972;-74
2022/09/17 07:28:57;;;;;;;6.53;2.00;;;12.70;1.00;;;;;;6161592;23;20404;-75
2022/09/17 07:31:25;;;;;;;0.60;0.10;;;12.70;1.00;;;;;;6153918;23;20765;-75
2022/09/17 07:33:53;;;;;;;0.60;0.10;;;12.70;1.00;;;;;;6153640;23;20416;-75
2022/09/17 07:36:21;;;;;;;0.60;0.30;;;12.80;1.00;;;;;;6153644;23;20468;-74
2022/09/17 07:38:49;;;;;;;0.67;0.20;;;12.80;1.00;;;;;;6155432;23;20480;-75
2022/09/17 07:41:19;;;;;;;0.60;0.10;;;12.90;1.00;;;;;;6155242;23;20796;-74
2022/09/17 07:43:47;;;;;;;0.60;0.10;;;12.90;1.00;;;;;;6155367;23;20424;-76
2022/09/17 07:46:17;;;;;;;0.60;0.10;;;13.00;1.00;;;;;;6154362;23;20405;-76
2022/09/17 07:48:46;;;;;;;3.77;0.40;;;13.00;1.00;;;;;;6154784;23;20409;-76
2022/09/17 07:51:18;;;;;;;0.60;0.10;;;13.10;1.00;;;;;;6154028;23;20437;-75
2022/09/17 07:53:49;;;;;;;0.60;0.10;;;;;;;;;;6154169;23;20964;-76
2022/09/17 07:56:18;;;;;;;0.60;0.10;;;13.10;1.00;;;;;;6156921;23;20401;-75
2022/09/17 07:58:46;;;;;;;0.60;0.10;;;13.10;1.00;;;;;;6155191;23;20770;-76
2022/09/17 08:01:16;;;;;;;0.60;0.10;;;13.20;1.00;;;;;;6155705;23;20421;-76
2022/09/17 08:03:48;;;;;;;0.60;0.10;;;13.10;1.00;;;;;;6154128;23;20435;-75
2022/09/17 08:06:18;;;;;;;0.70;0.30;;;13.20;1.00;;;;;;6155150;23;20488;-79
2022/09/17 08:08:46;;;;;;;0.60;0.20;;;13.20;1.00;;;;;;6155593;23;20897;-76
2022/09/17 08:11:16;;;;;;;0.93;0.50;;;13.20;1.00;;;;;;6155434;23;20950;-75
2022/09/17 08:14:05;;;;;;;0.60;0.10;;;13.30;1.00;;;;;;6154094;23;20436;-78
2022/09/17 08:16:33;;;;;;;0.60;0.10;;;;;;;;;;6160213;23;20416;-79
2022/09/17 08:19:02;;;;;;;0.60;0.30;;;13.40;1.00;;;;;;6167396;23;20473;-80
2022/09/17 08:21:29;;;;;;;0.60;0.10;;;13.40;1.00;;;;;;6162434;23;20427;-77
2022/09/17 08:23:58;;;;;;;0.60;0.10;;;14.00;1.00;;;;;;6164157;23;20444;-78
2022/09/17 08:26:26;;;;;;;0.60;0.10;;;13.50;1.00;;;;;;6170674;23;20877;-78
2022/09/17 08:28:55;;;;;;;0.60;0.10;;;13.60;1.00;;;;;;6178996;23;20413;-78
2022/09/17 08:31:27;;;;;;;0.90;0.77;;;13.60;1.00;;;;;;6176977;23;20452;-78
2022/09/17 08:34:01;;;;;;;0.60;0.20;;;13.60;1.00;;;;;;6165281;23;20397;-78
2022/09/17 08:36:30;;;;;;;0.60;0.10;;;;;;;;;;6163208;23;20404;-78
2022/09/17 08:38:58;;;;;;;0.60;0.20;;;13.60;1.00;;;;;;6161203;23;20710;-78
2022/09/17 08:41:34;;;;;;;0.60;0.10;;;13.60;1.00;;;;;;6160502;23;20774;-77
2022/09/17 08:44:11;;;;;;;0.80;0.40;;;13.60;1.00;;;;;;6159462;23;20444;-77
2022/09/17 08:46:45;;;;;;;0.60;0.10;;;13.60;1.00;;;;;;6158357;23;20420;-77
2022/09/17 08:49:22;;;;;;;0.60;0.10;;;13.60;1.00;;;;;;6158907;23;20400;-77
2022/09/17 08:52:03;;;;;;;0.60;0.10;;;13.60;1.00;;;;;;6163176;23;20487;-77
2022/09/17 08:54:36;;;;;;;0.77;0.43;;;13.80;1.00;;;;;;6165301;23;20428;-78
2022/09/17 08:57:17;;;;;;;0.60;0.10;;;13.90;1.00;;;;;;6161268;23;20378;-76
2022/09/17 08:59:55;;;;;;;1.30;1.00;;;13.90;1.00;;;;;;6164179;23;20441;-77
2022/09/17 09:02:43;;;;;;;0.77;0.40;;;14.00;1.00;;;;;;6159827;23;20431;-78
2022/09/17 09:05:15;;;;;;;0.60;0.20;;;14.00;1.00;;;;;;6160052;23;20479;-76
2022/09/17 09:07:47;;;;;;;0.60;0.10;;;14.00;1.00;;;;;;6155637;23;20711;-76
2022/09/17 09:10:21;;;;;;;0.60;0.10;;;14.10;1.00;;;;;;6155402;23;20440;-75
2022/09/17 09:12:51;;;;;;;0.60;0.10;;;14.10;1.00;;;;;;6155824;23;20464;-76
2022/09/17 09:15:31;;;;;;;0.60;0.10;;;14.20;1.00;;;;;;6156597;23;20405;-77
2022/09/17 09:18:19;;;;;;;0.60;0.10;;;;;;;;;;6157539;23;20452;-77
2022/09/17 09:20:54;;;;;;;0.60;0.10;;;14.50;1.00;;;;;;6157538;23;20441;-76
2022/09/17 09:23:33;;;;;;;0.60;0.10;;;14.60;1.00;;;;;;6156760;23;20404;-75
2022/09/17 09:26:14;;;;;;;0.60;0.10;;;14.70;1.00;;;;;;6155657;23;20401;-76
2022/09/17 09:29:07;;;;;;;0.60;0.10;;;14.60;1.00;;;;;;6157140;23;20381;-76
2022/09/17 09:31:50;;;;;;;0.60;0.10;;;14.60;1.00;;;;;;6144814;23;20557;-77
2022/09/17 09:34:20;;;;;;;0.60;0.20;;;14.60;1.00;;;;;;6155850;23;20414;-77
2022/09/17 09:36:50;;;;;;;0.60;0.10;;;14.80;1.00;;;;;;6156801;23;20417;-76
2022/09/17 09:39:22;;;;;;;0.60;0.10;;;15.00;1.00;;;;;;6158112;23;20492;-77
2022/09/17 09:41:54;;;;;;;0.60;0.10;;;15.30;1.00;;;;;;6154913;23;20452;-77
2022/09/17 09:44:25;;;;;;;0.60;0.20;;;15.30;1.00;;;;;;6155729;23;20905;-78
2022/09/17 09:47:25;;;;;;;0.60;0.10;;;15.30;1.00;;;;;;6156779;23;20765;-77
2022/09/17 09:50:07;;;;;;;0.60;0.20;;;15.30;1.00;;;;;;6155143;23;20751;-75
2022/09/17 09:52:48;;;;;;;0.60;0.10;;;15.30;1.00;;;;;;6155498;23;20397;-76
2022/09/17 09:55:42;;;;;;;1.00;0.40;;;15.20;1.00;;;;;;6154762;23;20405;-76
2022/09/17 09:58:22;;;;;;;0.60;0.10;;;15.30;1.00;;;;;;6154841;23;20408;-77
2022/09/17 10:00:51;;;;;;;0.60;0.20;;;15.30;1.00;;;;;;6155485;23;20444;-77
2022/09/17 10:03:21;;;;;;;0.60;0.20;;;15.30;1.00;;;;;;6154290;23;20409;-76
2022/09/17 10:05:57;;;;;;;0.60;0.20;;;15.30;1.00;;;;;;6155015;23;20441;-77
2022/09/17 10:08:25;;;;;;;0.60;0.10;;;15.30;1.00;;;;;;6155565;23;20448;-77
2022/09/17 10:10:55;;;;;;;0.60;0.20;;;15.20;1.00;;;;;;6154426;23;20417;-76
2022/09/17 10:13:23;;;;;;;0.60;0.10;;;15.20;1.00;;;;;;6154226;23;20409;-77
2022/09/17 10:15:51;;;;;;;0.60;0.30;;;15.20;1.00;;;;;;6154578;23;20719;-77
2022/09/17 10:18:21;;;;;;;0.60;0.10;;;15.10;1.00;;;;;;6155717;23;20397;-78
2022/09/17 10:20:58;;;;;;;0.97;0.67;;;15.10;1.00;;;;;;6154596;23;20444;-78
2022/09/17 10:23:30;;;;;;;0.60;0.10;;;15.00;1.00;;;;;;6154087;23;20405;-77
2022/09/17 10:25:58;;;;;;;0.60;0.20;;;15.00;1.00;;;;;;6154331;23;20416;-77
2022/09/17 10:28:33;;;;;;;0.60;0.10;;;15.00;1.00;;;;;;6154831;23;20948;-76
2022/09/17 10:31:05;;;;;;;0.60;0.10;;;15.00;1.00;;;;;;6154713;23;20421;-76
2022/09/17 10:33:39;;;;;;;0.60;0.10;;;14.90;1.00;;;;;;6154273;23;20404;-78
2022/09/17 10:36:12;;;;;;;0.60;0.10;;;14.80;1.00;;;;;;6154805;23;20862;-78
2022/09/17 10:38:42;;;;;;;0.60;0.10;;;14.80;1.00;;;;;;6155820;23;20512;-76
2022/09/17 10:41:16;;;;;;;0.60;0.10;;;14.90;1.00;;;;;;6155400;23;20511;-79
2022/09/17 10:43:44;;;;;;;0.60;0.20;;;14.90;1.00;;;;;;6155168;23;20416;-76
2022/09/17 10:46:16;;;;;;;0.60;0.10;;;15.00;1.00;;;;;;6155426;23;20464;-78
2022/09/17 10:48:53;;;;;;;0.60;0.13;;;15.00;1.00;;;;;;6155252;23;20436;-77
2022/09/17 10:51:25;;;;;;;0.60;0.10;;;15.00;1.00;;;;;;6155741;23;20503;-77
2022/09/17 10:54:14;;;;;;;0.60;0.10;;;15.00;1.00;;;;;;6161343;23;20703;-78
2022/09/17 10:56:48;;;;;;;0.60;0.10;;;15.00;1.00;;;;;;6166601;23;20417;-76
2022/09/17 10:59:38;;;;;;;0.60;0.10;;;15.00;1.00;;;;;;6156151;23;20547;-76
2022/09/17 11:02:27;;;;;;;0.60;0.17;;;15.10;1.00;;;;;;6154287;23;20890;-78
2022/09/17 11:05:05;;;;;;;0.60;0.30;;;15.10;1.00;;;;;;6156824;23;20469;-78
2022/09/17 11:07:42;;;;;;;0.60;0.13;;;15.10;1.00;;;;;;6158706;23;20405;-79
2022/09/17 11:10:18;;;;;;;0.60;0.20;;;15.10;1.00;;;;;;6160424;23;20956;-78
2022/09/17 11:13:01;;;;;;;0.60;0.10;;;15.10;1.00;;;;;;6159076;23;20739;-78
2022/09/17 11:15:48;;;;;;;0.60;0.10;;;15.10;1.00;;;;;;6156583;23;20772;-79
2022/09/17 11:18:40;;;;;;;0.60;0.10;;;15.00;1.00;;;;;;6156095;23;20547;-78
2022/09/17 11:21:40;;;;;;;0.60;0.10;;;15.00;1.00;;;;;;6155476;23;20507;-77
2022/09/17 11:24:47;;;;;;;0.60;0.10;;;15.10;1.00;;;;;;6155544;23;20460;-78
2022/09/17 11:27:34;;;;;;;0.60;0.10;;;15.30;1.00;;;;;;6155029;23;20435;-78
2022/09/17 11:30:08;;;;;;;9.20;1.80;;;15.40;1.00;;;;;;6155731;23;20433;-79
2022/09/17 11:32:48;;;;;;;2.40;1.23;;;15.40;1.00;;;;;;6157139;23;20469;-76
2022/09/17 11:35:25;;;;;;;0.60;0.10;;;15.50;1.00;;;;;;6158472;23;20397;-78
2022/09/17 11:38:00;;;;;;;0.60;0.20;;;15.60;1.00;;;;;;6157500;23;20408;-78
2022/09/17 11:40:42;;;;;;;0.60;0.10;;;15.70;1.00;;;;;;6156938;23;20510;-80
2022/09/17 11:43:19;;;;;;;0.60;0.10;;;15.80;1.00;;;;;;6157154;23;20929;-77
2022/09/17 11:45:56;;;;;;;0.60;0.10;;;15.80;1.00;;;;;;6157614;23;20389;-77
2022/09/17 11:51:56;;;;;;;0.60;0.10;;;15.40;1.00;;;;;;6123222;23;20436;-78
2022/09/17 11:54:28;;;;;;;0.60;0.10;;;15.20;1.00;;;;;;6159712;23;20405;-78
2022/09/17 11:57:06;;;;;;;0.60;0.10;;;15.10;1.00;;;;;;6161323;23;20385;-80
2022/09/17 11:59:41;;;;;;;0.60;0.10;;;14.70;1.00;;;;;;6160670;23;20397;-78
2022/09/17 12:02:21;;;;;;;0.60;0.10;;;14.60;1.00;;;;;;6161172;23;20377;-79
2022/09/17 12:04:58;;;;;;;0.60;0.10;;;14.50;1.00;;;;;;6160692;23;20805;-79
2022/09/17 12:07:34;;;;;;;0.60;0.10;;;14.50;1.00;;;;;;6161017;23;20394;-78
2022/09/17 12:10:20;;;;;;;0.60;0.10;;;14.50;1.00;;;;;;6162391;23;20412;-78
2022/09/17 12:12:56;;;;;;;0.60;0.10;;;14.50;1.00;;;;;;6160834;23;20397;-78
2022/09/17 12:15:29;;;;;;;0.60;0.10;;;14.60;1.00;;;;;;6162729;23;20383;-79
2022/09/17 12:18:11;;;;;;;0.60;0.10;;;14.80;1.00;;;;;;6161524;23;20397;-77
2022/09/17 12:21:01;;;;;;;0.60;0.10;;;14.80;1.00;;;;;;6160246;23;20444;-78
2022/09/17 12:23:38;;;;;;;0.70;0.47;;;14.90;1.00;;;;;;6159301;23;20456;-78
2022/09/17 12:26:15;;;;;;;0.60;0.10;;;14.90;1.00;;;;;;6162256;23;20807;-81
2022/09/17 12:28:53;;;;;;;0.60;0.20;;;15.00;1.00;;;;;;6162142;23;20475;-80
2022/09/17 12:31:28;;;;;;;0.60;0.10;;;15.20;1.00;;;;;;6161900;23;20952;-80
2022/09/17 12:34:02;;;;;;;0.60;0.10;;;15.30;1.00;;;;;;6161386;23;20419;-81
2022/09/17 12:36:49;;;;;;;0.70;0.50;;;15.50;1.00;;;;;;6159167;23;20397;-78
2022/09/17 12:39:42;;;;;;;0.60;0.10;;;15.50;1.00;;;;;;6159163;23;20397;-79
2022/09/17 12:42:21;;;;;;;0.60;0.10;;;15.70;1.00;;;;;;6158684;23;20489;-80
2022/09/17 12:45:21;;;;;;;0.60;0.10;;;15.90;1.00;;;;;;6159125;23;20420;-79
2022/09/17 12:48:18;;;;;;;0.60;0.10;;;16.10;1.00;;;;;;6161657;23;20897;-80
2022/09/17 12:50:59;;;;;;;0.60;0.10;;;16.20;1.00;;;;;;6135788;23;20432;-79
2022/09/17 12:53:30;;;;;;;0.60;0.10;;;16.20;1.00;;;;;;6157663;23;20408;-78
2022/09/17 12:56:05;;;;;;;0.60;0.17;;;16.30;1.00;;;;;;6156000;23;20416;-79
2022/09/17 12:58:48;;;;;;;0.60;0.10;;;16.40;1.00;;;;;;6159224;23;20400;-78
2022/09/17 13:01:27;;;;;;;0.60;0.10;;;16.50;1.00;;;;;;6159047;23;20475;-78
2022/09/17 13:04:04;;;;;;;0.60;0.10;;;16.50;1.00;;;;;;6165985;23;20475;-78
2022/09/17 13:06:56;;;;;;;0.60;0.10;;;16.70;1.00;;;;;;6172718;23;20971;-77
2022/09/17 13:09:46;;;;;;;0.60;0.10;;;16.70;1.00;;;;;;6173764;23;20420;-78
2022/09/17 13:12:24;;;;;;;0.60;0.10;;;16.70;1.00;;;;;;6162516;23;20441;-78
2022/09/17 13:15:06;;;;;;;0.60;0.10;;;16.70;1.00;;;;;;6160354;23;20409;-80
2022/09/17 13:17:43;;;;;;;0.60;0.10;;;16.70;1.00;;;;;;6159192;23;20404;-79
2022/09/17 13:20:21;;;;;;;0.60;0.20;;;16.70;1.00;;;;;;6157780;23;20428;-79
2022/09/17 13:22:53;;;;;;;0.60;0.10;;;16.60;1.00;;;;;;6157028;23;20397;-78
2022/09/17 13:25:22;;;;;;;0.60;0.10;;;16.70;1.00;;;;;;6158194;23;20417;-78
2022/09/17 13:28:03;;;;;;;0.60;0.10;;;16.70;1.00;;;;;;6160573;23;20478;-80
2022/09/17 13:30:57;;;;;;;0.70;0.20;;;16.70;1.00;;;;;;6159927;23;20964;-79
2022/09/17 13:33:57;;;;;;;0.60;0.10;;;16.70;1.00;;;;;;6158135;23;20748;-78